Time;durP1;ratioP1;P1;durP2;ratioP2;P2;SDS_P1;SDS_P2;PMS_P1;PMS_P2;Temp;Humidity;BMP_temperature;BMP_pressure;BME280_temperature;BME280_humidity;BME280_pressure;Samples;Min_cycle;Max_cycle;Signal;HPM_P1;HPM_P2
2022/06/17 00:01:33;;;;;;;5.07;2.97;;;;;;;14.55;89.15;97997.31;6208446;28;20290;-45
2022/06/17 00:04:35;;;;;;;3.60;3.30;;;;;;;14.54;89.41;98000.13;6206807;28;20600;-45
2022/06/17 00:07:41;;;;;;;3.87;3.40;;;;;;;14.50;89.16;97996.91;6206963;28;20593;-45
2022/06/17 00:10:43;;;;;;;3.37;3.07;;;;;;;14.46;89.24;97995.50;6208217;28;20240;-45
2022/06/17 00:13:45;;;;;;;3.73;3.37;;;;;;;14.44;89.54;97993.97;6192680;28;20305;-46
2022/06/17 00:16:48;;;;;;;3.00;2.80;;;;;;;14.42;89.70;97994.09;6207810;28;20311;-45
2022/06/17 00:19:50;;;;;;;3.70;3.40;;;;;;;14.42;89.50;97994.09;6208407;28;20240;-46
2022/06/17 00:22:53;;;;;;;3.20;2.90;;;;;;;14.35;89.95;97996.44;6202068;28;20229;-46
2022/06/17 00:25:55;;;;;;;3.97;3.67;;;;;;;14.39;90.05;97999.69;6207635;28;20236;-46
2022/06/17 00:28:57;;;;;;;4.13;3.20;;;;;;;14.30;89.87;97988.06;6211740;28;20267;-46
2022/06/17 00:31:59;;;;;;;6.67;3.47;;;;;;;14.27;89.97;97987.50;6207451;28;20239;-45
2022/06/17 00:35:02;;;;;;;3.53;3.17;;;;;;;14.23;90.05;97988.75;6201612;28;20228;-45
2022/06/17 00:38:05;;;;;;;4.57;3.63;;;;;;;14.20;90.14;97986.38;6206668;28;20472;-45
2022/06/17 00:41:24;;;;;;;4.60;3.37;;;;;;;14.15;90.37;97978.00;6207387;28;20774;-45
2022/06/17 00:44:34;;;;;;;3.87;3.50;;;;;;;14.11;90.16;97979.22;6186166;28;21810;-45
2022/06/17 00:48:13;;;;;;;3.80;3.43;;;;;;;14.12;90.61;97981.75;6204266;28;20303;-45
2022/06/17 00:51:24;;;;;;;4.03;3.43;;;;;;;14.08;90.71;97979.50;6207015;28;20225;-45
2022/06/17 00:54:39;;;;;;;3.90;3.60;;;;;;;14.03;90.85;97983.41;6205835;28;20248;-45
2022/06/17 00:57:41;;;;;;;5.43;3.33;;;;;;;14.02;90.71;97991.50;6206370;28;20762;-45
2022/06/17 01:05:06;;;;;;;5.37;3.77;;;;;;;13.99;90.77;97994.44;6204842;28;20224;-46
2022/06/17 01:09:56;;;;;;;4.50;3.83;;;;;;;13.99;90.91;97992.63;6205291;28;20237;-45
2022/06/17 01:11:41;;;;;;;4.13;3.83;;;;;;;14.00;91.10;98001.41;6206802;28;20239;-46
2022/06/17 01:14:44;;;;;;;4.07;3.70;;;;;;;13.99;91.08;98005.03;6202059;28;20243;-46
2022/06/17 01:17:49;;;;;;;4.90;4.10;;;;;;;13.98;91.09;98001.56;6204569;28;20224;-45
2022/06/17 01:20:55;;;;;;;4.37;3.97;;;;;;;14.12;91.56;98004.78;6199031;28;20229;-45
2022/06/17 01:23:59;;;;;;;4.93;3.97;;;;;;;14.14;91.51;97997.53;6190450;28;20580;-45
2022/06/17 01:27:02;;;;;;;4.67;4.07;;;;;;;14.14;91.20;98008.16;6204592;28;20341;-44
2022/06/17 01:30:07;;;;;;;4.30;4.00;;;;;;;14.15;91.63;98007.19;6206790;28;20225;-44
2022/06/17 01:33:23;;;;;;;4.50;4.10;;;;;;;14.13;91.81;98004.66;6203892;28;20209;-46
2022/06/17 01:36:29;;;;;;;6.30;4.33;;;;;;;14.10;91.47;98017.34;6180252;28;20376;-45
2022/06/17 01:39:31;;;;;;;4.43;3.90;;;;;;;14.09;91.57;98019.16;6158047;28;20496;-45
2022/06/17 01:42:37;;;;;;;4.37;3.70;;;;;;;14.12;91.45;98018.91;6193365;28;20228;-46
2022/06/17 01:45:44;;;;;;;3.33;3.07;;;;;;;14.13;91.83;98022.41;6205308;28;20238;-45
2022/06/17 01:49:03;;;;;;;4.30;4.00;;;;;;;14.14;91.80;98013.47;6204400;28;20706;-46
2022/06/17 01:52:33;;;;;;;6.83;4.70;;;;;;;14.11;92.02;98011.06;6204355;28;20241;-45
2022/06/17 01:55:42;;;;;;;4.47;4.07;;;;;;;14.10;92.09;98018.19;6205541;28;20232;-46
2022/06/17 01:59:05;;;;;;;4.87;4.37;;;;;;;14.15;92.19;98015.16;6206166;28;20232;-44
2022/06/17 02:02:13;;;;;;;4.60;3.97;;;;;;;14.19;92.05;98021.84;6204271;28;20235;-46
2022/06/17 02:05:19;;;;;;;4.30;3.90;;;;;;;14.20;92.67;98020.88;6203280;28;20225;-46
2022/06/17 02:08:22;;;;;;;5.40;4.20;;;;;;;14.22;92.61;98024.22;6203344;28;20290;-45
2022/06/17 02:11:24;;;;;;;4.87;4.23;;;;;;;14.21;92.46;98027.84;6205805;28;20318;-46
2022/06/17 02:14:35;;;;;;;5.17;4.47;;;;;;;14.20;92.55;98020.88;6184326;28;20240;-45
2022/06/17 02:18:09;;;;;;;4.63;4.23;;;;;;;14.18;92.81;98022.81;6196359;28;20387;-45
2022/06/17 02:21:28;;;;;;;5.03;4.50;;;;;;;14.17;92.95;98023.81;6196436;28;20209;-45
2022/06/17 02:24:30;;;;;;;4.60;4.20;;;;;;;14.17;92.80;98024.66;6203518;28;20807;-46
2022/06/17 02:27:34;;;;;;;4.60;4.17;;;;;;;14.18;93.00;98031.63;6203647;28;20274;-46
2022/06/17 02:30:40;;;;;;;4.73;4.27;;;;;;;14.20;92.81;98029.69;6203352;28;20244;-45
2022/06/17 02:33:49;;;;;;;4.57;3.83;;;;;;;14.17;92.69;98021.16;6202585;28;20779;-45
2022/06/17 02:37:09;;;;;;;5.63;4.93;;;;;;;14.13;92.59;98031.22;6196599;28;20229;-46
2022/06/17 02:40:40;;;;;;;4.77;4.37;;;;;;;14.17;92.53;98029.13;6205214;28;20244;-46
2022/06/17 02:43:51;;;;;;;4.60;4.30;;;;;;;14.15;92.56;98033.72;6202377;28;20244;-45
2022/06/17 02:46:56;;;;;;;4.90;4.50;;;;;;;14.13;92.82;98040.97;6207796;28;20232;-45
2022/06/17 02:49:59;;;;;;;5.33;4.90;;;;;;;14.13;92.98;98046.28;6208068;28;20236;-45
2022/06/17 02:53:02;;;;;;;5.40;4.77;;;;;;;14.14;93.05;98038.19;6208378;28;20231;-45
2022/06/17 02:56:16;;;;;;;6.40;5.57;;;;;;;14.17;93.27;98037.09;6207751;28;20221;-45
2022/06/17 02:59:36;;;;;;;5.60;4.87;;;;;;;14.17;93.07;98039.75;6208110;28;20264;-46
2022/06/17 03:02:48;;;;;;;5.43;4.93;;;;;;;14.18;93.71;98038.75;6209436;28;20232;-46
2022/06/17 03:05:51;;;;;;;5.93;5.13;;;;;;;14.19;93.32;98046.56;6207711;28;20604;-46
2022/06/17 03:08:57;;;;;;;5.97;5.37;;;;;;;14.17;93.60;98047.72;6207652;28;20336;-46
2022/06/17 03:12:17;;;;;;;6.00;5.40;;;;;;;14.18;93.47;98052.03;6207872;28;20236;-45
2022/06/17 03:15:22;;;;;;;5.80;5.17;;;;;;;14.19;93.54;98054.53;6202376;28;20233;-48
2022/06/17 03:18:26;;;;;;;6.13;4.93;;;;;;;14.19;93.78;98051.03;6191607;28;20221;-46
2022/06/17 03:21:28;;;;;;;7.10;5.00;;;;;;;14.19;93.77;98043.09;6177068;28;20234;-45
2022/06/17 03:24:42;;;;;;;5.90;5.20;;;;;;;14.21;93.41;98049.09;6184717;28;20344;-47
2022/06/17 03:27:47;;;;;;;5.70;5.20;;;;;;;14.18;93.57;98054.66;6208525;28;20696;-46
2022/06/17 03:30:56;;;;;;;8.83;5.50;;;;;;;14.17;93.62;98058.34;6208838;28;20256;-45
2022/06/17 03:34:06;;;;;;;7.20;5.90;;;;;;;14.15;93.63;98068.25;6204303;28;20233;-46
2022/06/17 03:37:19;;;;;;;6.33;5.83;;;;;;;14.13;93.44;98075.50;6207644;28;20243;-45
2022/06/17 03:40:36;;;;;;;6.33;5.60;;;;;;;14.15;94.04;98079.69;6206954;28;20244;-45
2022/06/17 03:43:48;;;;;;;6.50;5.90;;;;;;;14.14;94.17;98083.31;6198883;28;20238;-45
2022/06/17 03:47:09;;;;;;;6.47;5.80;;;;;;;14.08;93.96;98083.84;6205937;28;20240;-47
2022/06/17 03:50:34;;;;;;;6.83;5.53;;;;;;;14.04;94.27;98090.41;6206345;28;20245;-45
2022/06/17 03:53:40;;;;;;;6.40;5.77;;;;;;;14.06;94.11;98090.28;6207212;28;20328;-45
2022/06/17 03:56:48;;;;;;;6.23;5.50;;;;;;;14.02;94.31;98089.69;6205049;28;20322;-46
2022/06/17 03:59:52;;;;;;;6.23;5.60;;;;;;;14.00;94.45;98096.94;6205914;28;20240;-45
2022/06/17 04:02:58;;;;;;;6.00;5.47;;;;;;;13.98;94.12;98094.44;6206762;28;20231;-48
2022/06/17 04:06:09;;;;;;;6.67;5.80;;;;;;;13.95;94.47;98102.69;6208080;28;20232;-46
2022/06/17 04:09:14;;;;;;;8.00;6.10;;;;;;;13.96;94.69;98101.72;6207714;28;20231;-47
2022/06/17 04:12:23;;;;;;;6.90;6.20;;;;;;;13.97;94.16;98105.19;6203363;28;20225;-46
2022/06/17 04:16:02;;;;;;;6.70;6.10;;;;;;;13.97;94.30;98108.66;6187020;28;20257;-46
2022/06/17 04:19:18;;;;;;;6.50;5.90;;;;;;;14.03;94.64;98109.97;6207144;28;20224;-46
2022/06/17 04:22:31;;;;;;;9.43;6.27;;;;;;;14.10;94.13;98112.91;6193659;28;20652;-47
2022/06/17 04:25:58;;;;;;;7.27;6.10;;;;;;;14.17;94.19;98117.56;6205039;28;20220;-46
2022/06/17 04:29:06;;;;;;;8.07;6.37;;;;;;;14.24;93.72;98123.16;6208207;28;20276;-46
2022/06/17 04:32:23;;;;;;;7.50;6.27;;;;;;;14.30;94.09;98127.94;6205834;28;20229;-45
2022/06/17 04:35:27;;;;;;;8.17;6.57;;;;;;;14.41;93.78;98127.84;6189847;28;20241;-46
2022/06/17 04:38:33;;;;;;;9.23;6.67;;;;;;;14.50;93.67;98129.69;6181299;28;20238;-46
2022/06/17 04:41:59;;;;;;;8.53;6.47;;;;;;;14.61;92.32;98136.69;6182523;28;20585;-46
2022/06/17 04:45:05;;;;;;;6.53;6.00;;;;;;;14.93;90.57;98141.78;6200060;28;20228;-46
2022/06/17 04:48:13;;;;;;;6.33;5.47;;;;;;;14.95;91.04;98143.34;6206901;28;20294;-46
2022/06/17 04:51:16;;;;;;;8.87;5.93;;;;;;;15.00;90.91;98146.41;6205389;28;20662;-46
2022/06/17 04:54:18;;;;;;;6.00;5.40;;;;;;;15.18;87.58;98145.69;6205086;28;20223;-46
2022/06/17 04:57:50;;;;;;;7.10;6.17;;;;;;;15.40;87.87;98153.38;6186318;28;20781;-46
2022/06/17 05:00:56;;;;;;;8.57;5.13;;;;;;;15.43;87.99;98151.28;6207006;28;20323;-46
2022/06/17 05:04:14;;;;;;;5.80;5.13;;;;;;;15.46;88.57;98166.13;6204335;28;20621;-46
2022/06/17 05:07:45;;;;;;;6.10;5.47;;;;;;;15.56;86.66;98168.81;6206494;28;20235;-46
2022/06/17 05:11:11;;;;;;;6.10;5.07;;;;;;;15.68;85.40;98171.16;6204140;28;20255;-46
2022/06/17 05:14:38;;;;;;;7.47;5.27;;;;;;;16.14;81.85;98183.66;6191171;28;20316;-46
2022/06/17 05:17:41;;;;;;;5.87;4.50;;;;;;;16.16;82.71;98181.69;6205062;28;20234;-46
2022/06/17 05:20:45;;;;;;;4.63;4.17;;;;;;;16.27;81.60;98193.13;6202093;28;20240;-46
2022/06/17 05:23:51;;;;;;;5.07;4.57;;;;;;;16.32;79.85;98190.88;6206221;28;20319;-46
2022/06/17 05:26:55;;;;;;;4.33;3.93;;;;;;;16.36;80.47;98192.25;6203407;28;20236;-46
2022/06/17 05:29:57;;;;;;;4.77;4.30;;;;;;;16.47;77.50;98192.88;6205810;28;20719;-46
2022/06/17 05:33:04;;;;;;;6.17;4.17;;;;;;;16.61;78.52;98191.56;6204285;28;20602;-45
2022/06/17 05:36:07;;;;;;;5.57;4.20;;;;;;;16.72;77.13;98183.41;6196571;28;20653;-46
2022/06/17 05:39:10;;;;;;;10.33;4.60;;;;;;;16.59;79.88;98191.72;6203533;28;20639;-46
2022/06/17 05:42:12;;;;;;;5.70;4.67;;;;;;;16.58;79.28;98198.03;6202810;28;20303;-45
2022/06/17 05:45:22;;;;;;;6.87;4.47;;;;;;;16.63;79.28;98194.97;6179675;28;20287;-46
2022/06/17 05:48:51;;;;;;;5.63;4.60;;;;;;;16.65;78.47;98198.31;6185962;28;20298;-45
2022/06/17 05:52:11;;;;;;;6.50;4.83;;;;;;;16.61;79.27;98199.56;6204228;28;20251;-46
2022/06/17 05:55:44;;;;;;;7.60;4.67;;;;;;;16.67;78.23;98211.50;6199053;28;20255;-47
2022/06/17 05:58:47;;;;;;;5.53;4.97;;;;;;;16.59;77.13;98214.84;6205679;28;20235;-46
2022/06/17 06:01:49;;;;;;;7.20;4.83;;;;;;;16.69;78.50;98222.81;6204325;28;20598;-44
2022/06/17 06:05:07;;;;;;;6.83;5.07;;;;;;;16.68;77.55;98231.81;6204094;28;20324;-45
2022/06/17 06:08:13;;;;;;;4.63;4.20;;;;;;;16.84;75.52;98234.69;6206364;28;20247;-46
2022/06/17 06:11:18;;;;;;;5.57;4.43;;;;;;;16.98;75.54;98232.34;6193889;28;20927;-46
2022/06/17 06:14:20;;;;;;;5.03;4.20;;;;;;;17.12;74.89;98224.81;6195692;28;20244;-46
2022/06/17 06:17:23;;;;;;;6.50;4.40;;;;;;;17.21;74.62;98238.09;6203352;28;20786;-48
2022/06/17 06:20:25;;;;;;;7.60;4.40;;;;;;;17.30;73.43;98253.19;6200725;28;20230;-46
2022/06/17 06:23:27;;;;;;;4.97;4.03;;;;;;;17.51;73.13;98249.38;6168307;28;20231;-46
2022/06/17 06:26:33;;;;;;;5.07;3.90;;;;;;;17.70;73.61;98241.25;6193307;28;20272;-47
2022/06/17 06:29:49;;;;;;;4.43;3.83;;;;;;;17.87;73.26;98256.41;6179669;28;20340;-46
2022/06/17 06:32:58;;;;;;;4.60;4.20;;;;;;;17.91;70.17;98243.59;6205083;28;20244;-46
2022/06/17 06:36:01;;;;;;;7.07;4.50;;;;;;;18.18;69.51;98248.78;6182177;28;20233;-46
2022/06/17 06:39:04;;;;;;;4.43;4.03;;;;;;;18.61;69.44;98253.25;6199226;28;20575;-46
2022/06/17 06:42:07;;;;;;;4.07;3.63;;;;;;;18.92;68.37;98258.06;6201270;28;20302;-46
2022/06/17 06:45:34;;;;;;;5.13;3.93;;;;;;;19.04;67.96;98257.63;6192389;28;20586;-46
2022/06/17 06:48:38;;;;;;;4.17;3.77;;;;;;;19.30;67.66;98260.19;6202692;28;20670;-46
2022/06/17 06:51:42;;;;;;;5.33;4.00;;;;;;;19.42;67.18;98266.06;6203437;28;20245;-46
2022/06/17 06:54:44;;;;;;;5.83;3.90;;;;;;;19.56;67.36;98264.63;6202795;28;20331;-46
2022/06/17 06:57:51;;;;;;;4.00;3.70;;;;;;;19.54;65.33;98256.75;6202821;28;20371;-46
2022/06/17 07:00:56;;;;;;;4.73;3.60;;;;;;;19.45;65.71;98257.72;6187360;28;20343;-46
2022/06/17 07:03:59;;;;;;;4.37;3.60;;;;;;;19.80;65.55;98259.28;6202955;28;20229;-46
2022/06/17 07:07:01;;;;;;;5.93;4.03;;;;;;;20.05;63.71;98260.97;6203747;28;20239;-46
2022/06/17 07:10:05;;;;;;;6.73;4.03;;;;;;;20.21;64.27;98257.41;6204089;28;20236;-46
2022/06/17 07:13:08;;;;;;;4.20;3.73;;;;;;;20.34;62.41;98259.59;6194104;28;20269;-44
2022/06/17 07:16:12;;;;;;;5.63;3.60;;;;;;;20.55;62.50;98259.91;6193218;28;20229;-47
2022/06/17 07:19:17;;;;;;;3.70;3.20;;;;;;;20.96;61.38;98258.72;6205186;28;20268;-46
2022/06/17 07:22:20;;;;;;;4.87;3.23;;;;;;;21.36;60.27;98251.53;6193365;28;20285;-45
2022/06/17 07:25:22;;;;;;;3.30;3.00;;;;;;;21.65;58.76;98256.22;6203360;28;20233;-45
2022/06/17 07:28:26;;;;;;;4.93;3.50;;;;;;;22.00;58.60;98262.84;6202525;28;20240;-45
2022/06/17 07:31:28;;;;;;;8.53;3.80;;;;;;;22.16;58.11;98261.88;6204670;28;20228;-46
2022/06/17 07:34:30;;;;;;;3.30;3.00;;;;;;;22.12;57.85;98263.25;6200017;28;20249;-45
2022/06/17 07:40:54;;;;;;;4.13;3.40;;;;;;;22.86;55.97;98270.38;6183799;28;20252;-45
2022/06/17 07:43:56;;;;;;;4.47;3.30;;;;;;;22.64;54.42;98277.53;6198962;28;20233;-45
2022/06/17 07:46:59;;;;;;;3.90;3.60;;;;;;;22.70;53.79;98271.38;6207172;28;20236;-45
2022/06/17 07:50:01;;;;;;;6.70;3.40;;;;;;;22.68;54.29;98281.50;6206430;28;20235;-45
2022/06/17 07:53:03;;;;;;;5.00;3.43;;;;;;;22.78;54.62;98283.94;6207700;28;20236;-47
2022/06/17 07:56:06;;;;;;;7.20;3.43;;;;;;;23.06;53.40;98292.19;6207728;28;20386;-50
2022/06/17 07:59:08;;;;;;;5.47;3.40;;;;;;;23.16;53.74;98296.25;6207460;28;20236;-48
2022/06/17 08:02:10;;;;;;;3.67;3.37;;;;;;;23.81;53.52;98295.41;6206895;28;20322;-45
2022/06/17 08:05:14;;;;;;;4.23;3.40;;;;;;;24.07;51.11;98296.66;6205620;28;20236;-47
2022/06/17 08:08:21;;;;;;;3.70;2.70;;;;;;;24.22;52.28;98294.78;6207294;28;20272;-45
2022/06/17 08:11:24;;;;;;;5.20;3.30;;;;;;;23.44;51.91;98307.19;6208331;28;20607;-46
2022/06/17 08:14:26;;;;;;;2.60;2.40;;;;;;;23.27;53.32;98308.41;6196379;28;20727;-46
2022/06/17 08:17:30;;;;;;;3.57;3.27;;;;;;;22.59;54.09;98309.50;6206799;28;20228;-45
2022/06/17 08:20:34;;;;;;;7.57;3.57;;;;;;;23.14;54.20;98305.56;6204094;28;20236;-46
2022/06/17 08:23:37;;;;;;;4.17;3.33;;;;;;;23.81;52.15;98297.25;6183252;28;20240;-45
2022/06/17 08:26:39;;;;;;;4.97;3.70;;;;;;;23.80;50.68;98306.38;6207185;28;20236;-49
2022/06/17 08:29:41;;;;;;;5.97;3.17;;;;;;;24.09;51.05;98305.41;6206506;28;20236;-46
2022/06/17 08:32:53;;;;;;;4.13;3.43;;;;;;;24.30;51.45;98308.13;6206467;28;20232;-47
2022/06/17 08:35:59;;;;;;;3.90;3.50;;;;;;;24.09;50.98;98300.00;6190052;28;20241;-47
2022/06/17 08:39:06;;;;;;;5.80;3.97;;;;;;;23.81;51.12;98303.50;6193460;28;20347;-47
2022/06/17 08:42:46;;;;;;;3.40;3.10;;;;;;;24.46;51.26;98302.44;6202872;28;20224;-46
2022/06/17 08:46:10;;;;;;;4.63;3.20;;;;;;;25.03;50.07;98304.09;6193988;28;20240;-48
2022/06/17 08:49:31;;;;;;;5.70;3.43;;;;;;;25.12;48.89;98310.16;6196634;28;20657;-45
2022/06/17 08:52:55;;;;;;;4.37;3.20;;;;;;;25.30;46.21;98315.84;6194960;28;20509;-47
2022/06/17 08:56:06;;;;;;;6.43;3.42;;;;;;;25.41;48.17;98317.16;6206069;28;20290;-47
2022/06/17 08:59:26;;;;;;;3.93;3.00;;;;;;;25.55;47.20;98313.47;6207607;28;20260;-49
2022/06/17 09:02:50;;;;;;;4.55;2.90;;;;;;;25.72;46.71;98317.50;6206938;28;20302;-46
2022/06/17 09:06:17;;;;;;;6.13;3.65;;;;;;;25.94;45.66;98319.03;6206344;28;20233;-49
2022/06/17 09:09:33;;;;;;;5.60;3.20;;;;;;;26.02;46.39;98324.22;6205903;28;20297;-47
2022/06/17 09:12:57;;;;;;;3.97;2.95;;;;;;;26.14;44.30;98323.63;6200207;28;20307;-48
2022/06/17 09:16:17;;;;;;;14.77;4.20;;;;;;;26.49;39.80;98333.25;6187824;28;20232;-46
2022/06/17 09:19:27;;;;;;;2.67;2.47;;;;;;;26.03;42.78;98319.66;6205893;28;20283;-48
2022/06/17 09:22:38;;;;;;;4.32;2.45;;;;;;;26.79;41.72;98320.94;6190248;28;20362;-47
2022/06/17 09:25:43;;;;;;;4.82;2.38;;;;;;;27.33;42.25;98319.78;6206036;28;20236;-46
2022/06/17 09:28:58;;;;;;;5.13;2.75;;;;;;;27.37;40.54;98329.16;6205348;28;20295;-46
2022/06/17 09:32:18;;;;;;;2.80;2.40;;;;;;;27.44;40.79;98326.44;6205546;28;20229;-45
2022/06/17 09:35:35;;;;;;;11.13;2.40;;;;;;;27.78;40.25;98330.66;6190414;28;20241;-46
2022/06/17 09:38:44;;;;;;;3.50;2.42;;;;;;;27.21;40.54;98318.78;6203898;28;20236;-50
2022/06/17 09:41:53;;;;;;;3.60;2.38;;;;;;;27.27;41.74;98330.63;6205886;28;20237;-48
2022/06/17 09:45:07;;;;;;;2.42;2.22;;;;;;;27.65;41.57;98345.13;6198506;28;20659;-48
2022/06/17 09:48:20;;;;;;;3.10;2.53;;;;;;;27.87;39.40;98348.34;6204987;28;20236;-48
2022/06/17 09:51:31;;;;;;;4.43;2.17;;;;;;;27.25;39.79;98343.59;6205113;28;20644;-49
2022/06/17 09:54:43;;;;;;;2.30;2.10;;;;;;;27.63;40.22;98343.69;6204312;28;20235;-47
2022/06/17 09:58:03;;;;;;;3.63;2.83;;;;;;;27.44;38.67;98346.25;6203791;28;20233;-48
2022/06/17 10:01:07;;;;;;;3.25;2.58;;;;;;;27.79;38.33;98354.03;6205176;28;20239;-45
2022/06/17 10:04:11;;;;;;;3.47;2.20;;;;;;;27.67;38.90;98353.03;6205806;28;20236;-47
2022/06/17 10:07:22;;;;;;;3.17;2.38;;;;;;;27.52;39.24;98339.75;6204405;28;20709;-45
2022/06/17 10:10:38;;;;;;;3.33;2.72;;;;;;;26.67;38.09;98354.28;6205708;28;20236;-46
2022/06/17 10:13:42;;;;;;;3.35;2.80;;;;;;;26.27;40.37;98348.84;6191139;28;20245;-49
2022/06/17 10:20:18;;;;;;;2.50;2.30;;;;;;;26.79;42.26;98358.03;6156533;28;20233;-50
2022/06/17 10:23:42;;;;;;;4.32;2.63;;;;;;;26.56;41.50;98349.47;6202167;28;20639;-48
2022/06/17 10:27:11;;;;;;;3.38;2.90;;;;;;;26.31;41.89;98352.81;6204775;28;20232;-47
2022/06/17 10:30:49;;;;;;;3.20;2.10;;;;;;;25.97;44.74;98350.22;6203044;28;20329;-49
2022/06/17 10:33:52;;;;;;;2.90;2.20;;;;;;;26.40;44.08;98339.91;6201745;28;20375;-48
2022/06/17 10:36:57;;;;;;;3.67;2.22;;;;;;;26.68;40.88;98343.22;6198738;28;20235;-49
2022/06/17 10:40:00;;;;;;;4.13;2.30;;;;;;;27.19;41.86;98329.84;6204944;28;20240;-48
2022/06/17 10:43:12;;;;;;;3.28;2.50;;;;;;;27.40;40.84;98344.16;6194609;28;20637;-49
2022/06/17 10:46:28;;;;;;;2.55;2.35;;;;;;;27.95;39.34;98328.28;6192158;28;20625;-48
2022/06/17 10:49:59;;;;;;;3.03;2.50;;;;;;;27.54;41.58;98345.78;6204714;28;20307;-50
2022/06/17 10:53:21;;;;;;;4.15;2.65;;;;;;;28.20;40.32;98334.63;6203714;28;20231;-48
2022/06/17 10:56:53;;;;;;;2.50;2.20;;;;;;;28.09;38.48;98335.28;6204720;28;20306;-49
2022/06/17 10:59:55;;;;;;;3.10;2.25;;;;;;;27.61;39.82;98338.47;6203511;28;20236;-48
2022/06/17 11:03:15;;;;;;;3.42;2.17;;;;;;;28.22;38.92;98332.53;6204569;28;20259;-48
2022/06/17 11:06:22;;;;;;;3.10;2.15;;;;;;;28.21;37.80;98325.41;6204839;28;20236;-46
2022/06/17 11:09:30;;;;;;;3.72;2.08;;;;;;;28.56;35.06;98332.03;6211715;28;20326;-48
2022/06/17 11:12:42;;;;;;;4.55;2.33;;;;;;;29.05;33.85;98335.75;6220083;28;20225;-47
2022/06/17 11:15:50;;;;;;;5.78;2.60;;;;;;;28.30;36.47;98334.97;6209100;28;20608;-49
2022/06/17 11:19:05;;;;;;;3.05;2.42;;;;;;;27.63;37.51;98341.81;6209481;28;20291;-46
2022/06/17 11:22:21;;;;;;;2.40;2.20;;;;;;;27.55;40.18;98334.72;6192442;28;20238;-46
2022/06/17 11:25:35;;;;;;;2.42;1.73;;;;;;;27.14;40.02;98334.25;6208091;28;20376;-47
2022/06/17 11:28:44;;;;;;;2.85;1.80;;;;;;;27.78;39.70;98330.66;6208145;28;20839;-46
2022/06/17 11:31:49;;;;;;;3.28;1.83;;;;;;;28.19;38.64;98332.94;6209083;28;20260;-46
2022/06/17 11:34:55;;;;;;;2.47;1.92;;;;;;;28.47;37.54;98330.63;6196551;28;20332;-47
2022/06/17 11:37:58;;;;;;;1.98;1.70;;;;;;;29.35;36.61;98322.25;6197715;28;20236;-46
2022/06/17 11:41:01;;;;;;;1.90;1.77;;;;;;;30.22;37.75;98315.47;6208347;28;20236;-45
2022/06/17 11:44:16;;;;;;;2.58;1.98;;;;;;;30.81;34.35;98313.69;6191076;28;20600;-46
2022/06/17 11:47:22;;;;;;;2.33;1.75;;;;;;;30.31;34.97;98321.41;6189121;28;20242;-51
2022/06/17 11:50:30;;;;;;;5.07;2.13;;;;;;;29.55;34.93;98330.19;6207915;28;20248;-46
2022/06/17 11:53:46;;;;;;;2.53;2.00;;;;;;;29.73;34.20;98324.75;6207617;28;20225;-45
2022/06/17 11:56:49;;;;;;;2.92;2.00;;;;;;;30.24;32.97;98309.81;6207423;28;20247;-48
2022/06/17 11:59:56;;;;;;;2.58;1.90;;;;;;;30.46;33.66;98316.34;6207710;28;20228;-48
2022/06/17 12:03:00;;;;;;;3.67;1.80;;;;;;;29.71;34.41;98313.25;6207138;28;20228;-46
2022/06/17 12:06:05;;;;;;;2.03;1.73;;;;;;;29.40;37.66;98314.28;6207228;28;20228;-46
2022/06/17 12:09:15;;;;;;;2.53;2.05;;;;;;;30.23;36.49;98311.69;6207607;28;20481;-49
2022/06/17 12:12:21;;;;;;;2.88;1.60;;;;;;;30.56;34.04;98302.16;6203467;28;20226;-46
2022/06/17 12:15:29;;;;;;;2.53;1.80;;;;;;;31.27;32.01;98295.63;6191212;28;20389;-47
2022/06/17 12:18:38;;;;;;;3.05;1.83;;;;;;;31.02;30.70;98299.44;6206905;28;20322;-45
2022/06/17 12:22:23;;;;;;;2.97;1.80;;;;;;;27.97;34.80;98313.44;6199475;28;20232;-48
2022/06/17 12:25:48;;;;;;;3.17;1.95;;;;;;;26.56;37.78;98311.56;6203322;28;20233;-47
2022/06/17 12:29:23;;;;;;;1.88;1.63;;;;;;;27.00;41.04;98303.63;6207202;28;20247;-48
2022/06/17 12:32:53;;;;;;;3.75;1.98;;;;;;;28.34;38.90;98306.31;6206631;28;20721;-49
2022/06/17 12:36:14;;;;;;;2.28;2.08;;;;;;;29.63;39.53;98306.25;6194451;28;20338;-48
2022/06/17 12:39:23;;;;;;;2.00;1.85;;;;;;;30.57;33.86;98290.19;6211178;28;20219;-46
2022/06/17 12:42:45;;;;;;;1.83;1.70;;;;;;;31.20;32.97;98290.31;6206082;28;20228;-45
2022/06/17 12:46:02;;;;;;;4.50;3.47;;;;;;;30.46;30.96;98281.75;6203905;28;20236;-46
2022/06/17 12:53:16;;;;;;;2.15;1.77;;;;;;;27.64;36.61;98291.94;6206929;28;20287;-47
2022/06/17 12:56:53;;;;;;;2.28;1.80;;;;;;;28.55;35.73;98277.94;6206090;28;20232;-46
2022/06/17 13:00:05;;;;;;;1.92;1.42;;;;;;;29.75;34.73;98276.34;6206551;28;20238;-46
2022/06/17 13:03:40;;;;;;;3.88;1.70;;;;;;;30.61;31.20;98273.16;6205745;28;20303;-47
2022/06/17 13:07:05;;;;;;;3.13;1.63;;;;;;;31.28;32.68;98251.75;6206913;28;20577;-47
2022/06/17 13:10:42;;;;;;;3.22;1.60;;;;;;;30.84;31.47;98263.31;6206929;28;20330;-47
2022/06/17 13:14:35;;;;;;;2.28;1.60;;;;;;;29.24;33.58;98274.94;6196547;28;20232;-46
2022/06/17 13:18:02;;;;;;;4.63;1.80;;;;;;;29.36;32.59;98262.22;6187999;28;20233;-45
2022/06/17 13:21:43;;;;;;;4.43;1.90;;;;;;;29.73;31.52;98252.13;6198228;28;20237;-46
2022/06/17 13:24:59;;;;;;;1.95;1.30;;;;;;;30.73;33.17;98249.47;6215769;28;20235;-48
2022/06/17 13:28:25;;;;;;;3.55;1.90;;;;;;;31.57;32.97;98251.75;6226730;28;20294;-47
2022/06/17 13:31:40;;;;;;;4.47;1.83;;;;;;;32.31;29.69;98245.22;6225732;28;20243;-47
2022/06/17 13:34:51;;;;;;;2.00;1.45;;;;;;;32.85;29.80;98246.31;6222769;28;20239;-46
2022/06/17 13:38:02;;;;;;;1.67;1.58;;;;;;;32.81;28.46;98247.09;6226059;28;20231;-47
2022/06/17 13:41:12;;;;;;;2.67;1.65;;;;;;;32.35;28.81;98245.53;6226430;28;20228;-46
2022/06/17 13:44:39;;;;;;;3.55;1.63;;;;;;;30.86;28.86;98239.34;6208324;28;20236;-47
2022/06/17 13:48:00;;;;;;;2.33;1.70;;;;;;;31.44;27.90;98233.78;6225183;28;20351;-49
2022/06/17 13:51:21;;;;;;;2.53;1.58;;;;;;;32.02;27.61;98233.53;6225245;28;20623;-47
2022/06/17 13:54:43;;;;;;;1.98;1.40;;;;;;;32.43;26.49;98226.00;6221977;28;20264;-45
2022/06/17 13:58:14;;;;;;;4.38;1.67;;;;;;;32.97;25.74;98225.16;6205443;28;20283;-49
2022/06/17 14:01:22;;;;;;;1.88;1.35;;;;;;;32.87;25.27;98226.94;6205578;28;20231;-45
2022/06/17 14:04:24;;;;;;;1.63;1.52;;;;;;;33.03;25.36;98223.34;6157191;28;20332;-46
2022/06/17 14:07:54;;;;;;;1.92;1.38;;;;;;;34.96;25.55;98225.16;6198592;28;20767;-47
2022/06/17 14:10:56;;;;;;;2.70;1.40;;;;;;;36.86;21.64;98224.91;6204706;28;20842;-48
2022/06/17 14:14:17;;;;;;;1.65;1.40;;;;;;;35.67;20.30;98237.25;6187914;28;20232;-44
2022/06/17 14:17:22;;;;;;;2.30;1.55;;;;;;;32.57;23.81;98236.34;6197103;28;20235;-45
2022/06/17 14:20:36;;;;;;;2.35;1.30;;;;;;;34.20;23.82;98230.91;6202059;28;20248;-46
2022/06/17 14:23:45;;;;;;;2.60;1.30;;;;;;;36.42;19.54;98230.22;6193547;28;20236;-46
2022/06/17 14:26:51;;;;;;;2.08;1.27;;;;;;;38.48;19.34;98231.44;6204618;28;20278;-46
2022/06/17 14:30:15;;;;;;;1.83;1.30;;;;;;;39.80;18.31;98236.28;6204615;28;20252;-46
2022/06/17 14:33:37;;;;;;;2.40;1.20;;;;;;;39.82;16.21;98216.63;6208637;28;20220;-44
2022/06/17 14:37:08;;;;;;;1.33;1.05;;;;;;;39.76;19.10;98221.41;6167044;28;20446;-46
2022/06/17 14:40:18;;;;;;;2.00;1.17;;;;;;;38.60;17.35;98228.34;6204245;28;20608;-44
2022/06/17 14:43:24;;;;;;;2.10;1.08;;;;;;;39.81;16.09;98212.22;6206985;28;20235;-45
2022/06/17 14:46:27;;;;;;;1.55;1.27;;;;;;;40.53;15.82;98223.81;6209484;28;20310;-46
2022/06/17 14:49:55;;;;;;;3.47;1.17;;;;;;;40.58;16.79;98220.91;6209308;28;20716;-44
2022/06/17 14:52:57;;;;;;;1.63;1.23;;;;;;;41.09;15.69;98219.97;6210291;28;20601;-48
2022/06/17 14:56:15;;;;;;;2.53;0.98;;;;;;;39.94;15.73;98210.66;6208662;28;20370;-45
2022/06/17 14:59:26;;;;;;;1.20;1.10;;;;;;;41.59;15.08;98213.38;6209724;28;20232;-47
2022/06/17 15:02:40;;;;;;;2.40;1.10;;;;;;;42.92;14.72;98217.31;6210532;28;20343;-47
2022/06/17 15:05:43;;;;;;;1.45;0.85;;;;;;;43.42;15.34;98217.81;6209546;28;20236;-46
2022/06/17 15:08:48;;;;;;;1.17;1.00;;;;;;;42.17;14.09;98220.91;6208824;28;20339;-49
2022/06/17 15:12:00;;;;;;;1.85;1.25;;;;;;;40.35;15.31;98208.06;6209312;28;20233;-45
2022/06/17 15:15:13;;;;;;;1.63;1.05;;;;;;;40.69;15.54;98210.47;6195722;28;21798;-44
2022/06/17 15:18:21;;;;;;;1.15;1.00;;;;;;;40.93;15.10;98213.91;6209156;28;20311;-48